createdAt,value
2022-09-07T00:01:54.209Z,98796.88
2022-09-07T00:04:23.287Z,98806.59
2022-09-07T00:06:50.981Z,98816.28
2022-09-07T00:09:18.713Z,98825.84
2022-09-07T00:11:46.811Z,98846.09
2022-09-07T00:14:14.565Z,98850.59
2022-09-07T00:16:42.320Z,98862.13
2022-09-07T00:19:10.033Z,98886.50
2022-09-07T00:21:39.087Z,98878.84
2022-09-07T00:24:07.085Z,98869.25
2022-09-07T00:26:35.195Z,98871.31
2022-09-07T00:29:04.641Z,98845.13
2022-09-07T00:31:32.582Z,98842.56
2022-09-07T00:34:01.644Z,98844.50
2022-09-07T00:36:29.872Z,98826.94
2022-09-07T00:38:59.427Z,98821.75
2022-09-07T00:41:27.135Z,98813.34
2022-09-07T00:43:56.930Z,98794.56
2022-09-07T00:46:26.101Z,98795.91
2022-09-07T00:48:58.374Z,98791.41
2022-09-07T00:51:29.110Z,98765.47
2022-09-07T00:54:01.010Z,98756.88
2022-09-07T00:56:31.547Z,98743.28
2022-09-07T00:58:59.567Z,98730.09
2022-09-07T01:01:28.046Z,98719.78
2022-09-07T01:03:58.582Z,98707.31
2022-09-07T01:06:29.068Z,98699.94
2022-09-07T01:09:01.454Z,98694.59
2022-09-07T01:11:29.306Z,98685.88
2022-09-07T01:13:58.072Z,98704.88
2022-09-07T01:16:36.786Z,98714.22
2022-09-07T01:19:15.139Z,98750.09
2022-09-07T01:21:50.465Z,98773.13
2022-09-07T01:24:36.502Z,98797.94
2022-09-07T01:27:40.662Z,98783.28
2022-09-07T01:30:11.426Z,98780.75
2022-09-07T01:32:50.724Z,98789.09
2022-09-07T01:35:24.185Z,98780.38
2022-09-07T01:37:57.581Z,98768.03
2022-09-07T01:40:31.995Z,98743.41
2022-09-07T01:43:03.372Z,98738.81
2022-09-07T01:45:35.402Z,98739.78
2022-09-07T01:48:05.989Z,98749.34
2022-09-07T01:50:36.680Z,98771.53
2022-09-07T01:53:08.933Z,98807.41
2022-09-07T01:55:39.213Z,98795.16
2022-09-07T01:58:10.871Z,98799.66
2022-09-07T02:00:43.156Z,98801.59
2022-09-07T02:03:15.045Z,98793.22
2022-09-07T02:05:48.061Z,98792.75
2022-09-07T02:08:18.935Z,98786.56
2022-09-07T02:10:49.828Z,98807.41
2022-09-07T02:13:20.995Z,98803.53
2022-09-07T02:15:53.328Z,98808.63
2022-09-07T02:18:21.875Z,98793.91
2022-09-07T02:20:53.304Z,98779.59
2022-09-07T02:23:24.158Z,98791.25
2022-09-07T02:25:55.082Z,98787.84
2022-09-07T02:28:25.472Z,98786.03
2022-09-07T02:30:54.626Z,98785.31
2022-09-07T02:33:23.297Z,98763.53
2022-09-07T02:35:51.267Z,98764.97
2022-09-07T02:38:19.353Z,98755.91
2022-09-07T02:40:52.250Z,98760.03
2022-09-07T02:43:20.968Z,98748.41
2022-09-07T02:46:02.568Z,98746.31
2022-09-07T02:48:35.318Z,98753.22
2022-09-07T02:51:09.969Z,98746.31
2022-09-07T02:53:55.430Z,98756.38
2022-09-07T02:56:36.384Z,98757.59
2022-09-07T02:59:10.325Z,98760.13
2022-09-07T03:01:44.958Z,98757.81
2022-09-07T03:04:15.480Z,98753.47
2022-09-07T03:06:45.467Z,98745.00
2022-09-07T03:09:16.932Z,98736.28
2022-09-07T03:11:44.921Z,98734.19
2022-09-07T03:14:14.192Z,98740.03
2022-09-07T03:16:43.732Z,98741.47
2022-09-07T03:19:11.524Z,98732.16
2022-09-07T03:21:39.224Z,98746.31
2022-09-07T03:24:07.401Z,98757.34
2022-09-07T03:26:36.472Z,98754.91
2022-09-07T03:29:04.150Z,98758.78
2022-09-07T03:31:33.125Z,98758.19
2022-09-07T03:34:02.246Z,98754.78
2022-09-07T03:36:30.818Z,98756.59
2022-09-07T03:38:59.467Z,98761.19
2022-09-07T03:41:27.604Z,98767.03
2022-09-07T03:43:55.480Z,98764.72
2022-09-07T03:46:23.687Z,98757.81
2022-09-07T03:48:51.437Z,98764.22
2022-09-07T03:51:20.443Z,98754.75
2022-09-07T03:53:48.603Z,98761.28
2022-09-07T03:56:18.178Z,98770.88
2022-09-07T03:58:47.126Z,98765.78
2022-09-07T04:01:17.088Z,98770.38
2022-09-07T04:03:45.251Z,98755.94
2022-09-07T04:06:13.811Z,98754.63
2022-09-07T04:08:43.784Z,98761.53
2022-09-07T04:11:13.815Z,98769.53
2022-09-07T04:13:41.875Z,98766.00
2022-09-07T04:16:14.090Z,98763.84
2022-09-07T04:18:42.172Z,98767.47
2022-09-07T04:21:10.443Z,98763.00
2022-09-07T04:23:39.100Z,98764.69
2022-09-07T04:26:08.603Z,98767.47
2022-09-07T04:28:36.369Z,98762.63
2022-09-07T04:31:04.274Z,98753.81
2022-09-07T04:33:32.162Z,98753.81
2022-09-07T04:36:00.820Z,98750.53
2022-09-07T04:38:29.345Z,98750.75
2022-09-07T04:41:01.187Z,98758.25
2022-09-07T04:43:30.935Z,98754.13
2022-09-07T04:45:59.186Z,98749.13
2022-09-07T04:48:26.933Z,98751.91
2022-09-07T04:50:54.705Z,98739.28
2022-09-07T04:53:22.447Z,98742.69
2022-09-07T04:55:50.150Z,98742.22
2022-09-07T04:58:17.828Z,98743.41
2022-09-07T05:00:46.953Z,98756.38
2022-09-07T05:03:14.676Z,98763.13
2022-09-07T05:05:42.389Z,98761.66
2022-09-07T05:08:10.027Z,98773.03
2022-09-07T05:10:37.811Z,98773.03
2022-09-07T05:13:05.528Z,98773.91
2022-09-07T05:15:33.702Z,98774.50
2022-09-07T05:18:02.724Z,98778.38
2022-09-07T05:20:30.941Z,98777.41
2022-09-07T05:22:59.542Z,98785.91
2022-09-07T05:25:31.328Z,98780.22
2022-09-07T05:27:59.082Z,98795.22
2022-09-07T05:33:16.123Z,98800.97
2022-09-07T05:35:43.860Z,98802.31
2022-09-07T05:38:11.536Z,98806.47
2022-09-07T05:40:42.145Z,98813.63
2022-09-07T05:43:10.388Z,98820.81
2022-09-07T05:45:42.185Z,98796.81
2022-09-07T05:48:09.967Z,98800.44
2022-09-07T05:50:38.981Z,98808.81
2022-09-07T05:53:08.184Z,98811.88
2022-09-07T05:55:35.854Z,98816.72
2022-09-07T05:58:03.584Z,98803.28
2022-09-07T06:00:31.681Z,98795.50
2022-09-07T06:02:59.630Z,98804.72
2022-09-07T06:05:27.578Z,98816.34
2022-09-07T06:07:56.621Z,98816.38
2022-09-07T06:13:12.018Z,98823.78
2022-09-07T06:15:39.946Z,98824.75
2022-09-07T06:18:08.018Z,98818.72
2022-09-07T06:20:35.696Z,98821.63
2022-09-07T06:23:04.790Z,98822.31
2022-09-07T06:25:32.479Z,98823.53
2022-09-07T06:28:00.333Z,98827.28
2022-09-07T06:30:28.191Z,98830.75
2022-09-07T06:32:55.938Z,98833.38
2022-09-07T06:35:23.632Z,98832.16
2022-09-07T06:37:51.556Z,98830.06
2022-09-07T06:40:20.656Z,98832.47
2022-09-07T06:42:50.391Z,98826.88
2022-09-07T06:45:18.059Z,98824.94
2022-09-07T06:47:45.704Z,98830.66
2022-09-07T06:50:13.473Z,98829.69
2022-09-07T06:55:32.534Z,98834.56
2022-09-07T06:58:00.314Z,98832.44
2022-09-07T07:00:28.059Z,98828.84
2022-09-07T07:02:55.811Z,98828.72
2022-09-07T07:05:23.573Z,98833.63
2022-09-07T07:07:51.316Z,98836.34
2022-09-07T07:10:24.254Z,98839.47
2022-09-07T07:12:57.335Z,98841.09
2022-09-07T07:15:26.835Z,98836.34
2022-09-07T07:18:00.339Z,98833.94
2022-09-07T07:20:33.462Z,98824.41
2022-09-07T07:23:02.403Z,98833.84
2022-09-07T07:25:30.305Z,98838.09
2022-09-07T07:30:47.201Z,98825.72
2022-09-07T07:33:15.245Z,98833.78
2022-09-07T07:35:43.161Z,98833.22
2022-09-07T07:43:48.293Z,98832.53
2022-09-07T07:46:17.376Z,98837.84
2022-09-07T07:48:49.000Z,98835.22
2022-09-07T07:51:16.670Z,98844.00
2022-09-07T07:53:44.306Z,98844.44
2022-09-07T07:56:12.811Z,98843.06
2022-09-07T07:58:40.759Z,98849.91
2022-09-07T08:01:12.051Z,98848.63
2022-09-07T08:03:41.089Z,98843.25
2022-09-07T08:06:09.943Z,98851.03
2022-09-07T08:08:38.330Z,98850.53
2022-09-07T08:11:08.348Z,98847.00
2022-09-07T08:13:36.110Z,98849.97
2022-09-07T08:16:05.569Z,98853.50
2022-09-07T08:18:36.072Z,98855.97
2022-09-07T08:21:05.092Z,98854.72
2022-09-07T08:23:33.480Z,98869.13
2022-09-07T08:26:01.535Z,98868.69
2022-09-07T08:28:30.872Z,98872.34
2022-09-07T08:30:59.154Z,98872.22
2022-09-07T08:33:26.909Z,98870.53
2022-09-07T08:36:00.572Z,98882.09
2022-09-07T08:38:29.395Z,98883.22
2022-09-07T08:40:57.393Z,98890.56
2022-09-07T08:43:41.900Z,98885.31
2022-09-07T08:46:16.442Z,98889.78
2022-09-07T08:48:44.233Z,98891.19
2022-09-07T08:51:23.655Z,98891.03
2022-09-07T08:53:51.974Z,98891.69
2022-09-07T08:56:22.876Z,98887.72
2022-09-07T08:58:52.099Z,98893.78
2022-09-07T09:01:37.110Z,98887.72
2022-09-07T09:04:22.431Z,98894.88
2022-09-07T09:07:06.885Z,98894.38
2022-09-07T09:09:46.977Z,98892.13
2022-09-07T09:12:18.789Z,98894.72
2022-09-07T09:14:57.513Z,98894.22
2022-09-07T09:17:30.404Z,98887.00
2022-09-07T09:20:04.318Z,98892.31
2022-09-07T09:22:33.446Z,98894.59
2022-09-07T09:25:05.815Z,98889.13
2022-09-07T09:27:33.520Z,98890.72
2022-09-07T09:30:01.094Z,98885.34
2022-09-07T09:32:37.761Z,98887.03
2022-09-07T09:35:13.853Z,98888.34
2022-09-07T09:37:43.654Z,98890.72
2022-09-07T09:40:22.806Z,98895.41
2022-09-07T09:42:59.929Z,98893.22
2022-09-07T09:45:29.966Z,98881.91
2022-09-07T09:47:58.762Z,98887.78
2022-09-07T09:53:25.585Z,98880.38
2022-09-07T09:55:53.846Z,98880.31
2022-09-07T10:01:26.697Z,98876.03
2022-09-07T10:06:27.538Z,98875.69
2022-09-07T10:09:01.737Z,98872.09
2022-09-07T10:14:34.176Z,98859.41
2022-09-07T10:17:02.716Z,98859.78
2022-09-07T10:19:36.081Z,98855.09
2022-09-07T10:22:05.348Z,98858.00
2022-09-07T10:24:39.241Z,98847.88
2022-09-07T10:27:20.979Z,98852.41
2022-09-07T10:29:49.020Z,98845.16
2022-09-07T10:32:27.865Z,98849.22
2022-09-07T10:35:03.112Z,98847.91
2022-09-07T10:37:37.204Z,98841.66
2022-09-07T10:40:18.291Z,98833.41
2022-09-07T10:45:48.183Z,98832.88
2022-09-07T10:48:20.936Z,98833.72
2022-09-07T10:50:51.141Z,98829.84
2022-09-07T10:53:41.253Z,98820.22
2022-09-07T10:56:12.992Z,98823.25
2022-09-07T10:59:02.347Z,98822.72
2022-09-07T11:01:40.692Z,98819.47
2022-09-07T11:04:33.232Z,98823.19
2022-09-07T11:07:05.246Z,98829.94
2022-09-07T11:09:41.941Z,98820.66
2022-09-07T11:12:16.309Z,98815.09
2022-09-07T11:14:49.019Z,98816.56
2022-09-07T11:17:18.562Z,98812.66
2022-09-07T11:19:52.732Z,98822.53
2022-09-07T11:22:28.381Z,98811.13
2022-09-07T11:27:52.418Z,98804.75
2022-09-07T11:30:22.428Z,98819.19
2022-09-07T11:32:59.912Z,98811.28
2022-09-07T11:35:36.177Z,98805.56
2022-09-07T11:38:11.631Z,98805.91
2022-09-07T11:40:43.905Z,98815.16
2022-09-07T11:43:19.429Z,98811.94
2022-09-07T11:45:50.584Z,98799.81
2022-09-07T11:48:22.273Z,98810.13
2022-09-07T11:50:53.117Z,98804.81
2022-09-07T11:53:23.395Z,98804.81
2022-09-07T11:55:55.431Z,98802.44
2022-09-07T11:58:38.373Z,98801.25
2022-09-07T12:01:12.878Z,98790.28
2022-09-07T12:04:13.222Z,98782.34
2022-09-07T12:06:55.279Z,98763.97
2022-09-07T12:09:34.130Z,98789.91
2022-09-07T12:12:11.814Z,98777.25
2022-09-07T12:14:50.367Z,98777.06
2022-09-07T12:17:27.933Z,98772.06
2022-09-07T12:20:18.127Z,98764.34
2022-09-07T12:23:04.323Z,98766.50
2022-09-07T12:25:33.447Z,98767.53
2022-09-07T12:28:01.533Z,98771.06
2022-09-07T12:30:58.193Z,98781.03
2022-09-07T12:33:30.808Z,98770.28
2022-09-07T12:36:00.801Z,98775.94
2022-09-07T12:39:11.166Z,98773.03
2022-09-07T12:41:47.648Z,98779.47
2022-09-07T12:44:29.195Z,98770.78
2022-09-07T12:47:00.710Z,98769.38
2022-09-07T12:50:04.385Z,98762.03
2022-09-07T12:52:48.568Z,98756.16
2022-09-07T12:55:29.687Z,98764.72
2022-09-07T12:58:06.698Z,98765.22
2022-09-07T13:00:39.183Z,98759.72
2022-09-07T13:06:17.736Z,98754.25
2022-09-07T13:08:57.299Z,98752.47
2022-09-07T13:11:32.937Z,98746.34
2022-09-07T13:14:04.761Z,98743.53
2022-09-07T13:20:08.899Z,98743.34
2022-09-07T13:22:57.754Z,98744.66
2022-09-07T13:25:46.964Z,98749.69
2022-09-07T13:28:25.060Z,98739.22
2022-09-07T13:31:05.637Z,98744.06
2022-09-07T13:33:48.250Z,98756.19
2022-09-07T13:36:33.398Z,98753.69
2022-09-07T13:39:02.543Z,98751.69
2022-09-07T13:41:33.688Z,98755.22
2022-09-07T13:44:03.753Z,98760.38
2022-09-07T13:46:48.876Z,98749.44
2022-09-07T13:49:30.367Z,98751.97
2022-09-07T13:52:04.222Z,98745.84
2022-09-07T13:54:43.495Z,98753.56
2022-09-07T13:57:17.866Z,98755.72
2022-09-07T13:59:46.604Z,98742.19
2022-09-07T14:02:23.366Z,98750.56
2022-09-07T14:04:52.316Z,98748.19
2022-09-07T14:07:21.735Z,98752.78
2022-09-07T14:10:05.403Z,98748.56
2022-09-07T14:12:33.223Z,98756.75
2022-09-07T14:15:20.961Z,98763.47
2022-09-07T14:17:49.229Z,98756.31
2022-09-07T14:20:19.042Z,98752.91
2022-09-07T14:22:49.463Z,98742.66
2022-09-07T14:25:22.200Z,98739.31
2022-09-07T14:27:50.462Z,98744.06
2022-09-07T14:30:23.977Z,98741.38
2022-09-07T14:32:53.312Z,98737.31
2022-09-07T14:35:22.228Z,98737.84
2022-09-07T14:37:50.685Z,98737.91
2022-09-07T14:40:21.930Z,98729.16
2022-09-07T14:42:50.423Z,98726.31
2022-09-07T14:45:20.866Z,98730.03
2022-09-07T14:47:50.501Z,98721.03
2022-09-07T14:50:21.708Z,98721.75
2022-09-07T14:53:34.076Z,98709.59
2022-09-07T14:55:41.612Z,98713.00
2022-09-07T14:58:11.471Z,98710.03
2022-09-07T15:00:39.433Z,98710.56
2022-09-07T15:03:29.589Z,98710.75
2022-09-07T15:06:00.834Z,98704.72
2022-09-07T15:08:40.220Z,98706.50
2022-09-07T15:14:00.598Z,98694.72
2022-09-07T15:16:31.051Z,98697.69
2022-09-07T15:19:01.943Z,98697.06
2022-09-07T15:21:32.046Z,98691.88
2022-09-07T15:24:01.297Z,98689.34
2022-09-07T15:29:21.726Z,98691.41
2022-09-07T15:32:02.271Z,98688.34
2022-09-07T15:34:32.154Z,98685.97
2022-09-07T15:37:00.888Z,98684.59
2022-09-07T15:39:29.746Z,98678.03
2022-09-07T15:42:58.893Z,98676.03
2022-09-07T15:44:46.799Z,98682.81
2022-09-07T15:50:01.871Z,98690.44
2022-09-07T15:52:31.471Z,98680.31
2022-09-07T15:54:59.404Z,98677.31
2022-09-07T16:00:16.571Z,98676.03
2022-09-07T16:05:31.932Z,98680.91
2022-09-07T16:10:53.552Z,98695.59
2022-09-07T16:13:24.000Z,98688.66
2022-09-07T16:15:52.078Z,98686.63
2022-09-07T16:18:20.194Z,98682.38
2022-09-07T16:20:52.697Z,98677.69
2022-09-07T16:23:20.693Z,98676.03
2022-09-07T16:25:58.294Z,98683.63
2022-09-07T16:28:28.050Z,98671.81
2022-09-07T16:30:56.489Z,98671.19
2022-09-07T16:33:31.609Z,98675.06
2022-09-07T16:36:06.073Z,98671.19
2022-09-07T16:38:49.575Z,98668.84
2022-09-07T16:41:20.405Z,98674.75
2022-09-07T16:43:52.484Z,98666.81
2022-09-07T16:46:22.748Z,98671.19
2022-09-07T16:48:51.727Z,98666.78
2022-09-07T16:51:21.155Z,98662.72
2022-09-07T16:53:50.028Z,98661.56
2022-09-07T16:56:19.329Z,98662.38
2022-09-07T16:58:50.109Z,98661.84
2022-09-07T17:01:21.340Z,98660.34
2022-09-07T17:03:50.290Z,98663.69
2022-09-07T17:06:19.302Z,98661.66
2022-09-07T17:08:47.374Z,98655.44
2022-09-07T17:11:17.216Z,98660.28
2022-09-07T17:13:45.700Z,98657.84
2022-09-07T17:16:14.844Z,98659.84
2022-09-07T17:21:33.191Z,98663.00
2022-09-07T17:24:01.662Z,98656.09
2022-09-07T17:26:31.520Z,98655.38
2022-09-07T17:29:00.773Z,98656.88
2022-09-07T17:34:20.742Z,98648.47
2022-09-07T17:36:48.836Z,98635.91
2022-09-07T17:39:18.874Z,98661.00
2022-09-07T17:41:48.154Z,98654.56
2022-09-07T17:44:15.912Z,98651.88
2022-09-07T17:46:43.490Z,98647.13
2022-09-07T17:49:13.991Z,98640.06
2022-09-07T17:51:43.248Z,98643.59
2022-09-07T17:54:13.366Z,98630.63
2022-09-07T17:56:41.748Z,98626.41
2022-09-07T18:01:57.627Z,98629.34
2022-09-07T18:04:25.686Z,98619.75
2022-09-07T18:06:55.515Z,98619.16
2022-09-07T18:09:23.175Z,98630.22
2022-09-07T18:11:51.189Z,98598.38
2022-09-07T18:14:19.404Z,98626.34
2022-09-07T18:16:49.213Z,98656.81
2022-09-07T18:19:18.275Z,98647.91
2022-09-07T18:21:47.668Z,98653.19
2022-09-07T18:24:19.486Z,98660.41
2022-09-07T18:26:52.309Z,98657.88
2022-09-07T18:29:31.210Z,98643.50
2022-09-07T18:32:02.438Z,98644.94
2022-09-07T18:34:31.836Z,98647.56
2022-09-07T18:37:00.013Z,98653.53
2022-09-07T18:39:29.402Z,98652.59
2022-09-07T18:41:57.209Z,98648.28
2022-09-07T18:47:21.651Z,98648.03
2022-09-07T18:49:49.624Z,98648.78
2022-09-07T18:55:08.514Z,98650.38
2022-09-07T18:57:36.656Z,98652.31
2022-09-07T19:00:05.448Z,98647.50
2022-09-07T19:02:33.340Z,98652.75
2022-09-07T19:07:48.727Z,98652.50
2022-09-07T19:10:18.028Z,98657.00
2022-09-07T19:12:46.321Z,98654.34
2022-09-07T19:15:14.210Z,98646.13
2022-09-07T19:17:41.939Z,98643.47
2022-09-07T19:20:10.597Z,98637.53
2022-09-07T19:22:39.916Z,98636.16
2022-09-07T19:25:07.948Z,98628.38
2022-09-07T19:27:36.859Z,98621.78
2022-09-07T19:30:05.052Z,98611.88
2022-09-07T19:32:32.637Z,98611.19
2022-09-07T19:35:00.239Z,98597.50
2022-09-07T19:37:29.817Z,98599.91
2022-09-07T19:39:57.499Z,98596.22
2022-09-07T19:42:26.169Z,98587.53
2022-09-07T19:44:55.203Z,98593.44
2022-09-07T19:47:23.829Z,98593.59
2022-09-07T19:49:52.184Z,98590.06
2022-09-07T19:52:19.759Z,98587.25
2022-09-07T19:54:47.256Z,98574.16
2022-09-07T19:57:15.065Z,98574.84
2022-09-07T19:59:45.521Z,98574.84
2022-09-07T20:02:14.504Z,98573.59
2022-09-07T20:04:44.319Z,98571.91
2022-09-07T20:07:12.757Z,98572.88
2022-09-07T20:09:40.427Z,98565.13
2022-09-07T20:12:08.949Z,98564.28
2022-09-07T20:14:36.936Z,98566.13
2022-09-07T20:17:04.535Z,98559.22
2022-09-07T20:19:34.064Z,98559.09
2022-09-07T20:22:04.064Z,98562.88
2022-09-07T20:24:31.691Z,98553.03
2022-09-07T20:27:02.642Z,98555.56
2022-09-07T20:29:31.554Z,98551.50
2022-09-07T20:32:00.398Z,98544.03
2022-09-07T20:34:28.906Z,98553.47
2022-09-07T20:36:58.735Z,98542.91
2022-09-07T20:39:26.792Z,98558.53
2022-09-07T20:41:54.476Z,98556.72
2022-09-07T20:44:22.071Z,98556.28
2022-09-07T20:46:49.835Z,98542.22
2022-09-07T20:49:17.539Z,98553.63
2022-09-07T20:51:49.193Z,98553.75
2022-09-07T20:54:20.070Z,98553.19
2022-09-07T20:56:47.879Z,98547.84
2022-09-07T20:59:15.671Z,98554.28
2022-09-07T21:01:43.296Z,98550.81
2022-09-07T21:04:10.983Z,98560.22
2022-09-07T21:06:38.588Z,98570.09
2022-09-07T21:09:06.430Z,98563.16
2022-09-07T21:11:36.281Z,98572.72
2022-09-07T21:14:06.906Z,98563.69
2022-09-07T21:16:35.444Z,98566.34
2022-09-07T21:19:04.942Z,98555.38
2022-09-07T21:21:38.579Z,98556.09
2022-09-07T21:24:08.045Z,98559.03
2022-09-07T21:26:37.248Z,98556.38
2022-09-07T21:29:06.011Z,98561.84
2022-09-07T21:31:34.477Z,98555.94
2022-09-07T21:34:03.242Z,98553.53
2022-09-07T21:36:31.127Z,98553.53
2022-09-07T21:38:58.797Z,98561.00
2022-09-07T21:41:27.059Z,98556.91
2022-09-07T21:44:00.209Z,98549.03
2022-09-07T21:46:29.102Z,98551.41
2022-09-07T21:48:58.027Z,98538.88
2022-09-07T21:51:27.145Z,98538.47
2022-09-07T21:53:55.548Z,98546.06
2022-09-07T21:56:23.502Z,98534.09
2022-09-07T21:58:54.998Z,98530.44
2022-09-07T22:01:25.108Z,98538.03
2022-09-07T22:03:55.640Z,98535.50
2022-09-07T22:06:24.071Z,98531.44
2022-09-07T22:08:51.831Z,98532.97
2022-09-07T22:11:21.523Z,98531.44
2022-09-07T22:13:49.213Z,98530.03
2022-09-07T22:16:20.002Z,98523.97
2022-09-07T22:18:49.100Z,98531.72
2022-09-07T22:21:19.231Z,98532.81
2022-09-07T22:23:48.678Z,98520.16
2022-09-07T22:26:18.988Z,98515.50
2022-09-07T22:28:46.697Z,98512.97
2022-09-07T22:31:16.872Z,98503.41
2022-09-07T22:33:46.891Z,98500.31
2022-09-07T22:36:17.399Z,98495.81
2022-09-07T22:38:46.159Z,98494.25
2022-09-07T22:41:15.633Z,98489.19
2022-09-07T22:43:43.770Z,98479.47
2022-09-07T22:46:12.353Z,98483.00
2022-09-07T22:48:40.566Z,98489.31
2022-09-07T22:51:09.077Z,98478.59
2022-09-07T22:53:39.768Z,98480.72
2022-09-07T22:56:08.813Z,98478.59
2022-09-07T22:58:37.205Z,98462.16
2022-09-07T23:01:05.326Z,98456.34
2022-09-07T23:03:34.366Z,98449.28
2022-09-07T23:06:02.441Z,98433.50
2022-09-07T23:08:30.789Z,98430.69
2022-09-07T23:11:05.737Z,98429.38
2022-09-07T23:13:33.575Z,98425.38
2022-09-07T23:16:04.663Z,98417.50
2022-09-07T23:18:32.731Z,98415.41
2022-09-07T23:21:00.877Z,98413.28
2022-09-07T23:23:29.752Z,98417.38
2022-09-07T23:25:57.625Z,98424.38
2022-09-07T23:28:26.772Z,98423.91
2022-09-07T23:30:55.037Z,98429.25
2022-09-07T23:33:22.830Z,98439.47
2022-09-07T23:35:57.614Z,98443.97
2022-09-07T23:38:26.059Z,98458.59
2022-09-07T23:40:54.597Z,98479.16
2022-09-07T23:43:22.691Z,98492.47
2022-09-07T23:45:51.853Z,98498.38
2022-09-07T23:48:20.072Z,98500.94
2022-09-07T23:50:47.960Z,98491.13
2022-09-07T23:53:16.185Z,98479.34
2022-09-07T23:55:43.965Z,98477.94
2022-09-07T23:58:12.152Z,98491.09
